Time;durP1;ratioP1;P1;durP2;ratioP2;P2;SDS_P1;SDS_P2;PMS_P1;PMS_P2;Temp;Humidity;BMP_temperature;BMP_pressure;BME280_temperature;BME280_humidity;BME280_pressure;Samples;Min_cycle;Max_cycle;Signal;HPM_P1;HPM_P2
2022/10/18 00:00:47;;;;;;;18.52;11.35;;;16.60;99.90;;;;;;5020967;28;20232;-66
2022/10/18 00:03:14;;;;;;;14.15;11.27;;;16.60;99.90;;;;;;5031053;28;20200;-65
2022/10/18 00:05:41;;;;;;;15.60;11.82;;;16.50;99.90;;;;;;4995809;28;20233;-65
2022/10/18 00:08:09;;;;;;;19.83;12.45;;;16.50;99.90;;;;;;5034603;28;20208;-65
2022/10/18 00:10:36;;;;;;;18.98;11.73;;;16.50;99.90;;;;;;5026233;28;20717;-65
2022/10/18 00:13:02;;;;;;;25.20;12.93;;;16.50;99.90;;;;;;5013983;28;20233;-66
2022/10/18 00:15:29;;;;;;;19.13;12.43;;;16.50;99.90;;;;;;5039670;28;20555;-65
2022/10/18 00:17:56;;;;;;;15.52;11.68;;;16.50;99.90;;;;;;5024109;28;20232;-65
2022/10/18 00:20:23;;;;;;;14.55;12.30;;;16.50;99.90;;;;;;5011836;28;20213;-65
2022/10/18 00:22:50;;;;;;;16.50;13.10;;;16.50;99.90;;;;;;5021623;28;20701;-66
2022/10/18 00:25:18;;;;;;;19.33;12.48;;;16.50;99.90;;;;;;5018475;28;20224;-66
2022/10/18 00:27:45;;;;;;;18.80;12.95;;;16.50;99.90;;;;;;5018372;28;20229;-65
2022/10/18 00:30:12;;;;;;;19.13;12.30;;;16.50;99.90;;;;;;5042400;28;20229;-66
2022/10/18 00:32:40;;;;;;;19.10;12.13;;;16.40;99.90;;;;;;5008111;28;20319;-65
2022/10/18 00:35:08;;;;;;;20.48;12.45;;;16.50;99.90;;;;;;5008119;28;20215;-65
2022/10/18 00:37:35;;;;;;;22.38;12.82;;;16.40;99.90;;;;;;5008198;28;20201;-66
2022/10/18 00:40:02;;;;;;;19.60;12.60;;;16.40;99.90;;;;;;5036607;28;20209;-65
2022/10/18 00:42:37;;;;;;;24.92;12.75;;;16.30;99.90;;;;;;5018977;28;21016;-66
2022/10/18 00:45:19;;;;;;;21.55;12.93;;;16.30;99.90;;;;;;5023979;28;20704;-66
2022/10/18 00:47:52;;;;;;;21.85;13.00;;;16.30;99.90;;;;;;5030025;28;20212;-65
2022/10/18 00:50:20;;;;;;;18.80;13.18;;;16.30;99.90;;;;;;4993106;28;20224;-66
2022/10/18 00:52:52;;;;;;;22.13;12.48;;;16.30;99.90;;;;;;5021012;28;20654;-65
2022/10/18 00:55:19;;;;;;;24.70;12.18;;;16.30;99.90;;;;;;5041483;28;20841;-65
2022/10/18 00:57:47;;;;;;;18.48;11.95;;;16.30;99.90;;;;;;5016406;28;20212;-65
2022/10/18 01:00:14;;;;;;;21.05;13.07;;;16.20;99.90;;;;;;5031716;28;20204;-66
2022/10/18 01:02:43;;;;;;;18.10;12.43;;;16.20;99.90;;;;;;5025096;28;20204;-65
2022/10/18 01:05:12;;;;;;;22.42;12.32;;;15.50;99.90;;;;;;4995481;28;20894;-66
2022/10/18 01:07:59;;;;;;;16.83;11.35;;;16.20;99.90;;;;;;5027471;28;20318;-65
2022/10/18 01:10:32;;;;;;;18.23;12.23;;;16.20;99.90;;;;;;5014177;28;20236;-66
2022/10/18 01:13:15;;;;;;;21.75;11.77;;;16.10;99.90;;;;;;5022609;28;20212;-65
2022/10/18 01:15:51;;;;;;;18.10;12.63;;;16.10;99.90;;;;;;5039522;28;20203;-65
2022/10/18 01:18:25;;;;;;;20.20;12.07;;;16.10;99.90;;;;;;5015248;28;20252;-65
2022/10/18 01:21:14;;;;;;;16.95;12.43;;;16.10;99.90;;;;;;5010634;28;21073;-66
2022/10/18 01:24:13;;;;;;;16.63;12.40;;;16.10;99.90;;;;;;5012012;28;20270;-66
2022/10/18 01:26:58;;;;;;;22.77;12.15;;;16.00;99.90;;;;;;5027833;28;20189;-65
2022/10/18 01:29:37;;;;;;;15.07;12.27;;;16.00;99.90;;;;;;5004278;28;20655;-65
2022/10/18 01:32:11;;;;;;;19.83;12.20;;;16.00;99.90;;;;;;5034197;28;20251;-65
2022/10/18 01:34:41;;;;;;;22.17;12.50;;;16.00;99.90;;;;;;5039497;28;20212;-65
2022/10/18 01:37:11;;;;;;;17.42;12.02;;;16.00;99.90;;;;;;4996334;28;20847;-65
2022/10/18 01:39:42;;;;;;;25.45;12.43;;;16.00;99.90;;;;;;5017926;28;20206;-64
2022/10/18 01:42:13;;;;;;;18.40;12.35;;;15.90;99.90;;;;;;5034427;28;20216;-66
2022/10/18 01:44:41;;;;;;;17.90;12.35;;;15.90;99.90;;;;;;5027246;28;20201;-64
2022/10/18 01:47:12;;;;;;;18.13;13.32;;;15.90;99.90;;;;;;5041425;28;20196;-65
2022/10/18 01:49:38;;;;;;;17.70;12.70;;;15.80;99.90;;;;;;5027224;28;20212;-64
2022/10/18 01:52:06;;;;;;;21.27;12.38;;;15.80;99.90;;;;;;5011635;28;20225;-65
2022/10/18 01:54:36;;;;;;;18.67;12.32;;;15.80;99.90;;;;;;5007274;28;20645;-63
2022/10/18 01:57:09;;;;;;;21.77;13.02;;;15.80;99.90;;;;;;5037429;28;20234;-63
2022/10/18 01:59:51;;;;;;;21.08;13.05;;;15.80;99.90;;;;;;5032707;28;20571;-64
2022/10/18 02:02:30;;;;;;;22.90;13.68;;;15.80;99.90;;;;;;5008859;28;20216;-64
2022/10/18 02:05:03;;;;;;;22.02;13.13;;;15.80;99.90;;;;;;5032539;28;20201;-64
2022/10/18 02:07:34;;;;;;;18.52;12.40;;;15.80;99.90;;;;;;5017382;28;20216;-64
2022/10/18 02:10:08;;;;;;;21.45;13.48;;;15.80;99.90;;;;;;5009389;28;20205;-64
2022/10/18 02:12:37;;;;;;;25.25;13.10;;;15.80;99.90;;;;;;5044034;28;20202;-64
2022/10/18 02:15:07;;;;;;;21.30;12.70;;;15.80;99.90;;;;;;5016440;28;20209;-64
2022/10/18 02:17:37;;;;;;;20.60;12.30;;;15.80;99.90;;;;;;5024603;28;20281;-64
2022/10/18 02:20:08;;;;;;;19.92;13.00;;;15.80;99.90;;;;;;5029530;28;20206;-64
2022/10/18 02:22:36;;;;;;;20.10;13.23;;;15.80;99.90;;;;;;5038035;28;20208;-64
2022/10/18 02:25:10;;;;;;;19.00;13.02;;;15.70;99.90;;;;;;5010971;28;20214;-64
2022/10/18 02:27:37;;;;;;;18.38;12.70;;;15.70;99.90;;;;;;5030339;28;20213;-64
2022/10/18 02:30:05;;;;;;;19.73;13.43;;;15.70;99.90;;;;;;5020554;28;20225;-64
2022/10/18 02:32:39;;;;;;;17.98;12.65;;;15.70;99.90;;;;;;5013737;28;20717;-64
2022/10/18 02:35:10;;;;;;;18.48;12.38;;;15.70;99.90;;;;;;5042380;28;20207;-64
2022/10/18 02:37:39;;;;;;;23.35;13.57;;;15.70;99.90;;;;;;5027559;28;20662;-64
2022/10/18 02:40:10;;;;;;;24.65;12.25;;;15.70;99.90;;;;;;4999759;28;20205;-64
2022/10/18 02:42:38;;;;;;;20.75;12.75;;;15.60;99.90;;;;;;5022599;28;20200;-64
2022/10/18 02:45:06;;;;;;;20.15;12.88;;;15.70;99.90;;;;;;5035130;28;20924;-64
2022/10/18 02:47:34;;;;;;;18.65;12.00;;;15.60;99.90;;;;;;5010844;28;20205;-65
2022/10/18 02:50:01;;;;;;;19.08;12.05;;;15.60;99.90;;;;;;5021720;28;20212;-64
2022/10/18 02:52:28;;;;;;;16.25;12.13;;;15.60;99.90;;;;;;5018849;28;20228;-64
2022/10/18 02:54:55;;;;;;;17.30;12.50;;;15.60;99.90;;;;;;4999819;28;20204;-64
2022/10/18 02:57:22;;;;;;;19.75;12.18;;;15.60;99.90;;;;;;5027538;28;20205;-64
2022/10/18 02:59:49;;;;;;;19.52;12.30;;;15.60;99.90;;;;;;5019783;28;20201;-64
2022/10/18 03:02:16;;;;;;;25.27;13.30;;;15.60;99.90;;;;;;5033439;28;20197;-64
2022/10/18 03:04:44;;;;;;;24.20;13.65;;;15.60;99.90;;;;;;5006863;28;20216;-64
2022/10/18 03:07:10;;;;;;;27.02;14.32;;;15.60;99.90;;;;;;5029232;28;20208;-64
2022/10/18 03:09:37;;;;;;;26.73;13.35;;;15.60;99.90;;;;;;5023549;28;20209;-66
2022/10/18 03:12:05;;;;;;;20.48;13.65;;;15.60;99.90;;;;;;5017453;28;20242;-64
2022/10/18 03:14:31;;;;;;;18.67;12.77;;;15.60;99.90;;;;;;5028221;28;20201;-64
2022/10/18 03:16:58;;;;;;;22.98;12.75;;;15.60;99.90;;;;;;5018746;28;20206;-64
2022/10/18 03:19:25;;;;;;;26.92;12.70;;;15.50;99.90;;;;;;5027247;28;20201;-64
2022/10/18 03:21:53;;;;;;;20.70;13.30;;;15.60;99.90;;;;;;5038707;28;20204;-64
2022/10/18 03:24:20;;;;;;;24.33;13.63;;;15.50;99.90;;;;;;5009202;28;20201;-64
2022/10/18 03:26:47;;;;;;;26.23;14.15;;;15.50;99.90;;;;;;5008002;28;20205;-64
2022/10/18 03:29:13;;;;;;;23.50;14.02;;;15.60;99.90;;;;;;5030888;28;20224;-64
2022/10/18 03:31:40;;;;;;;18.30;12.60;;;15.60;99.90;;;;;;5027582;28;20244;-64
2022/10/18 03:34:07;;;;;;;23.45;13.43;;;15.60;99.90;;;;;;5024516;28;20204;-63
2022/10/18 03:36:34;;;;;;;23.83;12.63;;;15.50;99.90;;;;;;5018202;28;20208;-64
2022/10/18 03:39:02;;;;;;;24.33;14.20;;;15.60;99.90;;;;;;4992875;28;20221;-63
2022/10/18 03:41:29;;;;;;;23.92;14.23;;;15.50;99.90;;;;;;4991920;28;20216;-64
2022/10/18 03:43:55;;;;;;;24.00;13.05;;;15.30;99.90;;;;;;5019588;28;20902;-64
2022/10/18 03:46:22;;;;;;;24.90;13.20;;;15.60;99.90;;;;;;5025539;28;20204;-64
2022/10/18 03:48:49;;;;;;;29.38;14.40;;;15.60;99.90;;;;;;5025616;28;20212;-64
2022/10/18 03:51:16;;;;;;;26.45;14.10;;;15.60;99.90;;;;;;5020001;28;20709;-65
2022/10/18 03:53:42;;;;;;;27.58;12.98;;;15.60;99.90;;;;;;5035148;28;20220;-64
2022/10/18 03:56:11;;;;;;;21.58;13.30;;;15.70;99.90;;;;;;4975185;28;20232;-64
2022/10/18 03:58:37;;;;;;;29.50;14.52;;;15.70;99.90;;;;;;4993217;28;20211;-64
2022/10/18 04:01:04;;;;;;;28.95;13.70;;;15.70;99.90;;;;;;5001844;28;20924;-65
2022/10/18 04:03:31;;;;;;;30.23;13.77;;;15.80;99.90;;;;;;5007520;28;20231;-65
2022/10/18 04:05:59;;;;;;;26.00;12.82;;;15.80;99.90;;;;;;5027184;28;20691;-65
2022/10/18 04:08:26;;;;;;;25.42;14.23;;;15.90;99.90;;;;;;5020183;28;20204;-65
2022/10/18 04:10:53;;;;;;;24.35;14.30;;;15.90;99.90;;;;;;4998663;28;20209;-65
2022/10/18 04:13:21;;;;;;;29.85;13.93;;;15.90;99.90;;;;;;5021116;28;20209;-65
2022/10/18 04:15:48;;;;;;;32.20;14.60;;;15.90;99.90;;;;;;5004738;28;22168;-64
2022/10/18 04:18:15;;;;;;;25.35;13.70;;;15.90;99.90;;;;;;5014483;28;20235;-64
2022/10/18 04:20:41;;;;;;;27.73;14.75;;;15.90;99.90;;;;;;5002144;28;20222;-66
2022/10/18 04:23:08;;;;;;;28.27;13.05;;;16.00;99.90;;;;;;5018602;28;20196;-65
2022/10/18 04:25:35;;;;;;;24.33;14.35;;;16.00;99.90;;;;;;5018901;28;20204;-64
2022/10/18 04:28:03;;;;;;;33.50;14.52;;;16.00;99.90;;;;;;5007117;22;20236;-64
2022/10/18 04:30:31;;;;;;;29.45;12.95;;;16.00;99.90;;;;;;4988856;28;20205;-65
2022/10/18 04:32:58;;;;;;;25.95;13.32;;;16.00;99.90;;;;;;4978704;28;20240;-64
2022/10/18 04:35:26;;;;;;;30.95;12.98;;;16.00;99.90;;;;;;4998972;28;20217;-64
2022/10/18 04:37:53;;;;;;;24.15;12.02;;;16.00;99.90;;;;;;4995844;28;20753;-65
2022/10/18 04:40:20;;;;;;;23.00;12.23;;;16.00;99.90;;;;;;4998097;28;20237;-65
2022/10/18 04:42:47;;;;;;;25.08;12.40;;;16.00;99.90;;;;;;4942645;28;20339;-65
2022/10/18 04:45:14;;;;;;;31.50;14.40;;;16.00;99.90;;;;;;4984794;28;20212;-66
2022/10/18 04:47:42;;;;;;;25.30;12.95;;;16.00;99.90;;;;;;4986773;28;20221;-65
2022/10/18 04:50:09;;;;;;;21.25;12.80;;;16.00;99.90;;;;;;4971732;28;21109;-65
2022/10/18 04:52:36;;;;;;;29.30;13.40;;;16.00;99.90;;;;;;5003842;28;20225;-65
2022/10/18 04:55:03;;;;;;;25.70;13.27;;;16.00;99.90;;;;;;4991725;28;20225;-65
2022/10/18 04:57:30;;;;;;;23.92;12.13;;;16.00;99.90;;;;;;4953551;28;20228;-65
2022/10/18 04:59:59;;;;;;;22.80;12.32;;;16.00;99.90;;;;;;5000959;28;20823;-64
2022/10/18 05:02:26;;;;;;;24.58;13.05;;;16.00;99.90;;;;;;4977507;28;20221;-65
2022/10/18 05:04:54;;;;;;;21.60;11.48;;;16.00;99.90;;;;;;4980697;28;20778;-65
2022/10/18 05:07:21;;;;;;;24.67;12.38;;;16.00;99.90;;;;;;4995938;28;20794;-66
2022/10/18 05:09:48;;;;;;;22.23;12.57;;;15.90;99.90;;;;;;5008441;28;20217;-65
2022/10/18 05:12:14;;;;;;;25.63;12.32;;;15.90;99.90;;;;;;4966542;28;21240;-64
2022/10/18 05:14:41;;;;;;;24.08;13.07;;;15.80;99.90;;;;;;5016281;28;20612;-65
2022/10/18 05:17:08;;;;;;;25.25;13.13;;;15.80;99.90;;;;;;4996163;28;20464;-65
2022/10/18 05:19:35;;;;;;;27.67;13.73;;;15.80;99.90;;;;;;5001065;28;20691;-65
2022/10/18 05:22:03;;;;;;;26.15;12.75;;;15.80;99.90;;;;;;4997509;28;20446;-65
2022/10/18 05:24:30;;;;;;;27.27;12.73;;;15.80;99.90;;;;;;5011902;28;20202;-66
2022/10/18 05:26:57;;;;;;;23.38;12.57;;;15.80;99.90;;;;;;4954116;28;20209;-66
2022/10/18 05:29:24;;;;;;;25.85;12.85;;;15.90;99.90;;;;;;4990692;28;20344;-65
2022/10/18 05:31:51;;;;;;;25.92;12.60;;;15.80;99.90;;;;;;4980194;28;20237;-66
2022/10/18 05:34:19;;;;;;;23.52;13.40;;;15.80;99.90;;;;;;5002974;28;20673;-65
2022/10/18 05:36:48;;;;;;;25.05;12.48;;;15.70;99.90;;;;;;4988383;28;20316;-66
2022/10/18 05:39:16;;;;;;;19.52;12.77;;;15.70;99.90;;;;;;4981068;28;20226;-65
2022/10/18 05:41:42;;;;;;;20.00;11.18;;;15.70;99.90;;;;;;5002345;28;20232;-66
2022/10/18 05:44:10;;;;;;;21.27;11.27;;;;;;;;;;4954881;28;20596;-64
2022/10/18 05:46:37;;;;;;;19.42;10.98;;;15.70;99.90;;;;;;5009818;28;20213;-65
2022/10/18 05:49:03;;;;;;;27.65;11.32;;;15.60;99.90;;;;;;5000141;28;20209;-65
2022/10/18 05:51:30;;;;;;;21.10;10.68;;;15.60;99.90;;;;;;5026748;28;20224;-66
2022/10/18 05:53:57;;;;;;;32.17;11.23;;;15.60;99.90;;;;;;4990395;28;20221;-64
2022/10/18 05:56:26;;;;;;;20.52;10.82;;;15.60;99.90;;;;;;5006346;28;20798;-64
2022/10/18 05:58:52;;;;;;;23.55;11.23;;;15.60;99.90;;;;;;4975723;28;20217;-65
2022/10/18 06:01:19;;;;;;;23.50;10.63;;;15.60;99.90;;;;;;5019180;28;20206;-65
2022/10/18 06:03:46;;;;;;;20.30;10.57;;;15.60;99.90;;;;;;4990107;28;20200;-64
2022/10/18 06:06:14;;;;;;;21.90;11.10;;;15.60;99.90;;;;;;5019671;28;20726;-64
2022/10/18 06:08:43;;;;;;;22.27;10.85;;;15.50;99.90;;;;;;5008891;28;20347;-65
2022/10/18 06:11:11;;;;;;;16.30;9.57;;;15.50;99.90;;;;;;5002260;28;20933;-65
2022/10/18 06:13:42;;;;;;;17.48;10.75;;;15.60;99.90;;;;;;5006051;28;20229;-65
2022/10/18 06:16:09;;;;;;;21.23;10.40;;;15.50;99.90;;;;;;4990269;28;20210;-65
2022/10/18 06:18:35;;;;;;;28.20;11.00;;;15.50;99.90;;;;;;5018414;28;20313;-65
2022/10/18 06:21:02;;;;;;;20.17;10.23;;;15.50;99.90;;;;;;5023671;28;20784;-64
2022/10/18 06:23:29;;;;;;;19.27;10.35;;;15.50;99.90;;;;;;5012312;28;20247;-65
2022/10/18 06:25:59;;;;;;;19.58;10.77;;;15.50;99.90;;;;;;5013960;28;20213;-64
2022/10/18 06:28:26;;;;;;;20.15;10.20;;;15.30;99.90;;;;;;4996185;28;20889;-66
2022/10/18 06:30:54;;;;;;;26.13;11.40;;;15.50;99.90;;;;;;4980477;28;20230;-65
2022/10/18 06:33:21;;;;;;;16.77;10.55;;;15.40;99.90;;;;;;5016168;28;20329;-64
2022/10/18 06:35:55;;;;;;;19.38;10.45;;;15.40;99.90;;;;;;5021063;28;20202;-65
2022/10/18 06:38:21;;;;;;;18.75;11.35;;;15.40;99.90;;;;;;4996430;28;21709;-65
2022/10/18 06:40:48;;;;;;;18.13;10.80;;;15.40;99.90;;;;;;5017310;28;20199;-65
2022/10/18 06:43:15;;;;;;;16.58;10.23;;;15.50;99.90;;;;;;5015560;28;20997;-65
2022/10/18 06:45:42;;;;;;;20.30;10.95;;;15.50;99.90;;;;;;4989746;28;20237;-64
2022/10/18 06:48:10;;;;;;;26.30;11.88;;;15.50;99.90;;;;;;5019604;28;20317;-65
2022/10/18 06:50:37;;;;;;;24.08;11.90;;;15.50;99.90;;;;;;5019620;28;20595;-65
2022/10/18 06:53:07;;;;;;;17.67;11.13;;;15.40;99.90;;;;;;5000087;28;20326;-65
2022/10/18 06:55:34;;;;;;;19.92;11.57;;;15.40;99.90;;;;;;4994156;28;20555;-65
2022/10/18 06:58:01;;;;;;;18.55;10.82;;;15.50;99.90;;;;;;5024663;28;20208;-65
2022/10/18 07:00:28;;;;;;;21.45;10.48;;;15.40;99.90;;;;;;4972945;28;21551;-64
2022/10/18 07:02:56;;;;;;;15.82;10.18;;;15.50;99.90;;;;;;5009071;28;20217;-65
2022/10/18 07:05:24;;;;;;;24.55;9.70;;;15.40;99.90;;;;;;5019546;28;20315;-64
2022/10/18 07:07:51;;;;;;;21.45;11.85;;;15.40;99.90;;;;;;5013395;28;20202;-64
2022/10/18 07:10:18;;;;;;;19.30;10.13;;;15.40;99.90;;;;;;5001078;28;20206;-64
2022/10/18 07:12:44;;;;;;;20.70;10.88;;;15.40;99.90;;;;;;5005246;28;20217;-65
2022/10/18 07:15:11;;;;;;;20.48;9.50;;;15.50;99.90;;;;;;5010544;28;20212;-65
2022/10/18 07:17:38;;;;;;;18.95;9.35;;;15.40;99.90;;;;;;4983112;28;20217;-66
2022/10/18 07:20:05;;;;;;;15.68;8.50;;;15.40;99.90;;;;;;5005516;28;20556;-66
2022/10/18 07:22:33;;;;;;;19.60;9.10;;;15.40;99.90;;;;;;5025100;28;20208;-66
2022/10/18 07:25:00;;;;;;;16.30;9.25;;;15.40;99.90;;;;;;4980662;28;20301;-64
2022/10/18 07:27:27;;;;;;;17.95;9.27;;;15.40;99.90;;;;;;4988736;28;20233;-65
2022/10/18 07:29:53;;;;;;;17.52;8.95;;;15.40;99.90;;;;;;4978239;28;20524;-65
2022/10/18 07:32:20;;;;;;;18.63;8.95;;;15.40;99.90;;;;;;4972658;28;20237;-65
2022/10/18 07:34:47;;;;;;;12.48;7.97;;;15.30;99.90;;;;;;4996644;28;20461;-65
2022/10/18 07:37:14;;;;;;;21.60;9.25;;;15.30;99.90;;;;;;5009952;28;20770;-64
2022/10/18 07:39:42;;;;;;;14.50;8.18;;;15.30;99.90;;;;;;4986813;28;20210;-66
2022/10/18 07:42:09;;;;;;;16.73;8.82;;;15.20;99.90;;;;;;5003589;28;20218;-65
2022/10/18 07:44:35;;;;;;;13.73;8.55;;;15.20;99.90;;;;;;4989435;28;21320;-65
2022/10/18 07:47:02;;;;;;;15.93;8.77;;;15.20;99.90;;;;;;4996709;28;20205;-65
2022/10/18 07:49:29;;;;;;;16.98;8.68;;;15.20;99.90;;;;;;4980081;28;20221;-65
2022/10/18 07:51:56;;;;;;;16.23;8.63;;;15.20;99.90;;;;;;5021175;28;20797;-65
2022/10/18 07:54:22;;;;;;;17.88;9.00;;;15.20;99.90;;;;;;5012416;28;20197;-65
2022/10/18 07:56:51;;;;;;;16.00;8.18;;;15.30;99.90;;;;;;5006468;28;20690;-65
2022/10/18 07:59:17;;;;;;;20.23;8.90;;;15.20;99.90;;;;;;5014156;28;20220;-64
2022/10/18 08:01:44;;;;;;;17.10;8.25;;;15.20;99.90;;;;;;4991056;28;20217;-66
2022/10/18 08:04:11;;;;;;;13.02;8.85;;;15.20;99.90;;;;;;4986992;28;20248;-66
2022/10/18 08:06:38;;;;;;;16.60;10.13;;;15.20;99.90;;;;;;5012116;28;20723;-64
2022/10/18 08:09:05;;;;;;;13.27;8.15;;;15.20;99.90;;;;;;5018047;28;20980;-65
2022/10/18 08:11:32;;;;;;;15.32;8.85;;;15.20;99.90;;;;;;4991100;28;20292;-66
2022/10/18 08:14:01;;;;;;;15.10;8.32;;;15.30;99.90;;;;;;5007609;28;20738;-65
2022/10/18 08:16:30;;;;;;;14.70;9.40;;;15.20;99.90;;;;;;5009849;28;20655;-65
2022/10/18 08:18:58;;;;;;;15.07;8.55;;;15.40;99.90;;;;;;4992449;28;20206;-65
2022/10/18 08:21:25;;;;;;;12.98;9.20;;;15.20;99.90;;;;;;5011394;28;20205;-65
2022/10/18 08:23:52;;;;;;;15.32;8.90;;;15.20;99.90;;;;;;5013703;28;20280;-66
2022/10/18 08:26:21;;;;;;;16.48;9.05;;;15.30;99.90;;;;;;4994629;28;21119;-65
2022/10/18 08:28:48;;;;;;;17.08;9.30;;;15.30;99.90;;;;;;5020369;28;20232;-65
2022/10/18 08:31:18;;;;;;;15.32;9.13;;;15.40;99.90;;;;;;4992902;28;20220;-65
2022/10/18 08:33:45;;;;;;;25.73;11.95;;;15.40;99.90;;;;;;5006914;28;20232;-65
2022/10/18 08:36:14;;;;;;;21.48;12.65;;;15.50;99.90;;;;;;4983132;28;20699;-66
2022/10/18 08:38:42;;;;;;;34.63;14.35;;;15.50;99.90;;;;;;5008472;28;20202;-65
2022/10/18 08:41:27;;;;;;;30.80;14.55;;;15.40;99.90;;;;;;5009453;28;20204;-66
2022/10/18 08:44:03;;;;;;;32.25;13.00;;;15.40;99.90;;;;;;5009796;28;20221;-65
2022/10/18 08:46:32;;;;;;;14.73;10.48;;;15.50;99.90;;;;;;4994163;28;20225;-65
2022/10/18 08:49:01;;;;;;;20.90;11.27;;;15.40;99.90;;;;;;5008645;28;20212;-65
2022/10/18 08:51:32;;;;;;;19.65;11.10;;;15.30;99.90;;;;;;4986701;28;20243;-66
2022/10/18 08:54:03;;;;;;;18.20;9.40;;;15.20;99.90;;;;;;5010570;28;20229;-65
2022/10/18 08:56:32;;;;;;;15.43;9.63;;;15.20;99.90;;;;;;4997599;28;20213;-66
2022/10/18 08:58:58;;;;;;;19.20;10.43;;;15.10;99.90;;;;;;5012298;28;20206;-66
2022/10/18 09:01:36;;;;;;;18.42;11.68;;;15.10;99.90;;;;;;4992966;28;20209;-66
2022/10/18 09:04:24;;;;;;;18.52;11.40;;;15.10;99.90;;;;;;5005488;28;20217;-66
2022/10/18 09:07:02;;;;;;;18.38;10.27;;;15.10;99.90;;;;;;4986177;28;20209;-65
2022/10/18 09:09:39;;;;;;;19.70;9.77;;;15.00;99.90;;;;;;4984609;28;20228;-66
2022/10/18 09:12:20;;;;;;;13.27;8.35;;;15.00;99.90;;;;;;4981131;28;20228;-65
2022/10/18 09:15:04;;;;;;;16.02;9.57;;;15.00;99.90;;;;;;4995185;28;20236;-66
2022/10/18 09:17:41;;;;;;;20.02;9.88;;;14.90;99.90;;;;;;4982934;28;20221;-65
2022/10/18 09:20:20;;;;;;;21.30;9.43;;;14.90;99.90;;;;;;5004587;28;20207;-65
2022/10/18 09:22:53;;;;;;;17.83;8.48;;;14.90;99.90;;;;;;4991695;28;20668;-65
2022/10/18 09:25:23;;;;;;;19.17;8.80;;;15.10;99.90;;;;;;5019061;28;20202;-66
2022/10/18 09:27:56;;;;;;;19.83;9.82;;;15.10;99.90;;;;;;5005919;28;20328;-65
2022/10/18 09:30:35;;;;;;;11.30;8.55;;;15.20;99.90;;;;;;4995893;28;20895;-66
2022/10/18 09:33:14;;;;;;;14.35;9.38;;;15.20;99.90;;;;;;5005327;28;20601;-65
2022/10/18 09:35:47;;;;;;;15.93;9.40;;;15.10;99.90;;;;;;4996219;28;20220;-65
2022/10/18 09:38:19;;;;;;;17.13;9.07;;;15.10;99.90;;;;;;4993863;28;20201;-67
2022/10/18 09:40:52;;;;;;;16.00;9.68;;;15.20;99.90;;;;;;5012354;28;20311;-66
2022/10/18 09:43:22;;;;;;;14.10;8.30;;;15.20;99.90;;;;;;4996646;28;20910;-65
2022/10/18 09:45:52;;;;;;;13.90;7.80;;;15.20;99.90;;;;;;4999011;28;20227;-66
2022/10/18 09:48:26;;;;;;;16.90;9.00;;;15.20;99.90;;;;;;5008211;28;20208;-65
2022/10/18 09:50:57;;;;;;;23.85;9.18;;;15.20;99.90;;;;;;5031689;28;20201;-65
2022/10/18 09:53:32;;;;;;;17.08;8.50;;;15.20;99.90;;;;;;5006037;28;20232;-65
2022/10/18 09:56:03;;;;;;;10.05;7.95;;;15.30;99.90;;;;;;4994735;28;20629;-65
2022/10/18 09:58:41;;;;;;;17.67;8.10;;;15.30;99.90;;;;;;5007429;28;20436;-65
2022/10/18 10:01:09;;;;;;;14.43;7.82;;;15.30;99.90;;;;;;5009954;28;20213;-66
2022/10/18 10:03:37;;;;;;;15.35;7.50;;;15.20;99.90;;;;;;5004076;28;20205;-65
2022/10/18 10:06:24;;;;;;;13.05;7.50;;;15.20;99.90;;;;;;5025825;28;21056;-66
2022/10/18 10:08:57;;;;;;;19.13;7.60;;;15.10;99.90;;;;;;5012877;28;20965;-65
2022/10/18 10:11:32;;;;;;;12.35;7.30;;;15.20;99.90;;;;;;4993402;28;20983;-65
2022/10/18 10:14:08;;;;;;;13.95;7.15;;;15.10;99.90;;;;;;5007445;28;20225;-64
2022/10/18 10:16:44;;;;;;;18.58;7.20;;;15.10;99.90;;;;;;5007356;28;20662;-64
2022/10/18 10:19:18;;;;;;;17.95;7.25;;;15.00;99.90;;;;;;4994015;28;20212;-65
2022/10/18 10:21:47;;;;;;;18.40;5.60;;;15.10;99.90;;;;;;5027591;28;21411;-66
2022/10/18 10:24:25;;;;;;;16.50;5.13;;;15.10;99.90;;;;;;5012272;28;20216;-65
2022/10/18 10:26:59;;;;;;;7.97;4.88;;;15.10;99.90;;;;;;4983501;28;20225;-66
2022/10/18 10:29:52;;;;;;;12.15;5.35;;;15.00;99.90;;;;;;5013724;28;20232;-66
2022/10/18 10:32:22;;;;;;;12.23;5.05;;;14.90;99.90;;;;;;5008709;28;20218;-66
2022/10/18 10:34:50;;;;;;;11.70;4.60;;;14.90;99.90;;;;;;5003893;28;20706;-66
2022/10/18 10:37:33;;;;;;;15.48;5.20;;;14.90;99.90;;;;;;5012684;28;20209;-66
2022/10/18 10:40:12;;;;;;;13.75;4.93;;;14.90;99.90;;;;;;5012627;28;20206;-66
2022/10/18 10:43:02;;;;;;;11.52;5.03;;;14.90;99.90;;;;;;4997112;28;20214;-66
2022/10/18 10:45:31;;;;;;;11.07;4.97;;;14.90;99.90;;;;;;4996024;28;20203;-65
2022/10/18 10:48:14;;;;;;;11.43;4.85;;;15.00;99.90;;;;;;5001410;28;20703;-67
2022/10/18 10:50:51;;;;;;;13.10;4.05;;;15.10;99.90;;;;;;5015055;28;20674;-66
2022/10/18 10:53:40;;;;;;;9.27;3.63;;;15.00;99.90;;;;;;5011883;28;20240;-66
2022/10/18 10:56:15;;;;;;;9.75;3.55;;;15.00;99.90;;;;;;5001038;28;20314;-65
2022/10/18 10:58:42;;;;;;;14.85;3.95;;;15.00;99.90;;;;;;4989637;28;20229;-65
2022/10/18 11:01:28;;;;;;;10.88;4.05;;;15.20;99.90;;;;;;5009421;28;20700;-65
2022/10/18 11:03:57;;;;;;;8.93;3.10;;;15.20;99.90;;;;;;5007958;28;20220;-65
2022/10/18 11:07:02;;;;;;;9.45;3.45;;;15.20;99.90;;;;;;5012486;28;20197;-65
2022/10/18 11:09:39;;;;;;;16.88;3.55;;;15.20;99.90;;;;;;5005002;28;21010;-65
2022/10/18 11:12:28;;;;;;;5.25;2.78;;;15.20;99.90;;;;;;5008250;28;20897;-64
2022/10/18 11:15:08;;;;;;;11.85;3.50;;;15.20;99.90;;;;;;4981913;28;20236;-65
2022/10/18 11:17:44;;;;;;;11.18;2.90;;;15.10;99.90;;;;;;5001955;28;21174;-65
2022/10/18 11:20:18;;;;;;;9.05;2.42;;;15.20;99.90;;;;;;5011671;28;20231;-65
2022/10/18 11:22:58;;;;;;;9.13;2.95;;;15.10;99.90;;;;;;5013675;28;21397;-65
2022/10/18 11:25:34;;;;;;;8.77;2.33;;;15.10;99.90;;;;;;5006415;28;20325;-65
2022/10/18 11:28:09;;;;;;;8.18;2.53;;;15.10;99.90;;;;;;5015367;28;21026;-64
2022/10/18 11:30:49;;;;;;;8.27;2.63;;;15.20;99.90;;;;;;4982735;28;23639;-65
2022/10/18 11:33:28;;;;;;;8.77;2.60;;;15.10;99.90;;;;;;4994966;28;20225;-65
2022/10/18 11:36:05;;;;;;;4.07;2.10;;;15.20;99.90;;;;;;4980462;28;20320;-65
2022/10/18 11:38:42;;;;;;;7.78;2.58;;;15.20;99.90;;;;;;5022627;28;20219;-66
2022/10/18 11:41:22;;;;;;;4.70;2.70;;;15.20;99.90;;;;;;4983693;28;20224;-66
2022/10/18 11:43:53;;;;;;;6.13;2.60;;;15.20;99.90;;;;;;5010297;28;20727;-65
2022/10/18 11:46:33;;;;;;;9.93;2.60;;;15.30;99.90;;;;;;4968369;28;20225;-65
2022/10/18 11:49:14;;;;;;;6.25;2.63;;;15.40;99.90;;;;;;5008311;28;20985;-65
2022/10/18 11:51:52;;;;;;;9.02;2.80;;;15.40;99.90;;;;;;5006114;28;20225;-65
2022/10/18 11:54:48;;;;;;;14.98;2.55;;;15.40;99.90;;;;;;5015389;28;20726;-65
2022/10/18 11:57:40;;;;;;;11.85;2.88;;;15.50;99.90;;;;;;4986954;28;20225;-65
2022/10/18 12:00:23;;;;;;;6.00;2.38;;;15.40;99.90;;;;;;4965932;28;20867;-66
2022/10/18 12:03:07;;;;;;;7.47;2.30;;;15.50;99.90;;;;;;4974685;28;20220;-66
2022/10/18 12:05:36;;;;;;;9.55;2.00;;;15.30;99.90;;;;;;4999274;28;20209;-65
2022/10/18 12:08:09;;;;;;;9.65;2.33;;;15.20;99.90;;;;;;5004506;28;20214;-65
2022/10/18 12:10:40;;;;;;;7.28;1.90;;;15.20;99.90;;;;;;5016333;28;20225;-65
2022/10/18 12:13:11;;;;;;;4.72;1.90;;;15.20;99.90;;;;;;5009233;28;20532;-65
2022/10/18 12:15:40;;;;;;;6.63;1.70;;;15.10;99.90;;;;;;4987537;28;20894;-66
2022/10/18 12:18:13;;;;;;;8.23;1.60;;;15.10;99.90;;;;;;5008124;28;21026;-64
2022/10/18 12:20:43;;;;;;;10.15;1.85;;;15.20;99.90;;;;;;4986343;28;20206;-66
2022/10/18 12:23:13;;;;;;;9.93;2.20;;;15.20;99.90;;;;;;5016732;28;20198;-65
2022/10/18 12:25:45;;;;;;;16.23;2.28;;;15.30;99.90;;;;;;4995605;28;20237;-66
2022/10/18 12:28:18;;;;;;;11.25;2.15;;;15.20;99.90;;;;;;5017561;28;20319;-65
2022/10/18 12:30:54;;;;;;;11.35;2.28;;;15.20;99.90;;;;;;4984293;28;20899;-65
2022/10/18 12:33:25;;;;;;;7.35;1.63;;;15.20;99.90;;;;;;4998712;28;20698;-64
2022/10/18 12:36:03;;;;;;;14.02;1.92;;;15.30;99.90;;;;;;4987908;28;20325;-65
2022/10/18 12:38:33;;;;;;;5.47;1.48;;;15.30;99.90;;;;;;5000494;28;20202;-65
2022/10/18 12:41:02;;;;;;;14.82;1.70;;;15.30;99.90;;;;;;5006959;28;20206;-65
2022/10/18 12:43:35;;;;;;;15.10;2.30;;;15.50;99.90;;;;;;4999880;28;20232;-65
2022/10/18 12:46:04;;;;;;;9.52;2.08;;;15.50;99.90;;;;;;4985899;28;20294;-65
2022/10/18 12:48:37;;;;;;;8.43;1.95;;;15.60;99.90;;;;;;5015108;28;20649;-65
2022/10/18 12:51:13;;;;;;;15.02;1.95;;;15.60;99.90;;;;;;5005616;28;20201;-65